sensor_id;sensor_type;location;lat;lon;timestamp;temperature;humidity
5520;DHT22;2782;52.362;10.012;2023-08-07T00:00:30;20.70;88.40
5520;DHT22;2782;52.362;10.012;2023-08-07T00:01:31;20.70;88.30
5520;DHT22;2782;52.362;10.012;2023-08-07T00:02:33;20.70;88.30
5520;DHT22;2782;52.362;10.012;2023-08-07T00:03:33;20.70;88.40
5520;DHT22;2782;52.362;10.012;2023-08-07T00:04:36;20.70;88.40
5520;DHT22;2782;52.362;10.012;2023-08-07T00:05:36;20.70;88.40
5520;DHT22;2782;52.362;10.012;2023-08-07T00:06:38;20.70;88.40
5520;DHT22;2782;52.362;10.012;2023-08-07T00:07:39;20.70;88.40
5520;DHT22;2782;52.362;10.012;2023-08-07T00:08:40;20.70;88.40
5520;DHT22;2782;52.362;10.012;2023-08-07T00:09:41;20.70;88.40
5520;DHT22;2782;52.362;10.012;2023-08-07T00:10:43;20.70;88.40
5520;DHT22;2782;52.362;10.012;2023-08-07T00:11:44;20.70;88.40
5520;DHT22;2782;52.362;10.012;2023-08-07T00:12:45;20.70;88.40
5520;DHT22;2782;52.362;10.012;2023-08-07T00:13:46;20.70;88.40
5520;DHT22;2782;52.362;10.012;2023-08-07T00:14:49;20.70;88.30
5520;DHT22;2782;52.362;10.012;2023-08-07T00:15:51;20.70;88.30
5520;DHT22;2782;52.362;10.012;2023-08-07T00:16:52;20.70;88.30
5520;DHT22;2782;52.362;10.012;2023-08-07T00:17:54;20.70;88.30
5520;DHT22;2782;52.362;10.012;2023-08-07T00:18:54;20.70;88.30
5520;DHT22;2782;52.362;10.012;2023-08-07T00:19:57;20.70;88.30
5520;DHT22;2782;52.362;10.012;2023-08-07T00:20:57;20.70;88.30
5520;DHT22;2782;52.362;10.012;2023-08-07T00:21:59;20.70;88.30
5520;DHT22;2782;52.362;10.012;2023-08-07T00:23:00;20.70;88.30
5520;DHT22;2782;52.362;10.012;2023-08-07T00:24:01;20.70;88.30
5520;DHT22;2782;52.362;10.012;2023-08-07T00:25:02;20.70;88.30
5520;DHT22;2782;52.362;10.012;2023-08-07T00:26:04;20.70;88.20
5520;DHT22;2782;52.362;10.012;2023-08-07T00:27:05;20.70;88.20
5520;DHT22;2782;52.362;10.012;2023-08-07T00:28:07;20.70;88.20
5520;DHT22;2782;52.362;10.012;2023-08-07T00:29:07;20.70;88.30
5520;DHT22;2782;52.362;10.012;2023-08-07T00:30:11;20.70;88.30
5520;DHT22;2782;52.362;10.012;2023-08-07T00:31:12;20.70;88.20
5520;DHT22;2782;52.362;10.012;2023-08-07T00:32:14;20.70;88.30
5520;DHT22;2782;52.362;10.012;2023-08-07T00:33:15;20.70;88.30
5520;DHT22;2782;52.362;10.012;2023-08-07T00:34:16;20.70;88.30
5520;DHT22;2782;52.362;10.012;2023-08-07T00:35:17;20.70;88.20
5520;DHT22;2782;52.362;10.012;2023-08-07T00:36:19;20.70;88.20
5520;DHT22;2782;52.362;10.012;2023-08-07T00:37:19;20.70;88.20
5520;DHT22;2782;52.362;10.012;2023-08-07T00:38:21;20.70;88.20
5520;DHT22;2782;52.362;10.012;2023-08-07T00:39:22;20.70;88.20
5520;DHT22;2782;52.362;10.012;2023-08-07T00:40:24;20.70;88.30
5520;DHT22;2782;52.362;10.012;2023-08-07T00:41:24;20.70;88.30
5520;DHT22;2782;52.362;10.012;2023-08-07T00:42:26;20.70;88.30
5520;DHT22;2782;52.362;10.012;2023-08-07T00:43:27;20.70;88.30
5520;DHT22;2782;52.362;10.012;2023-08-07T00:44:28;20.70;88.30
5520;DHT22;2782;52.362;10.012;2023-08-07T00:45:34;20.70;88.30
5520;DHT22;2782;52.362;10.012;2023-08-07T00:46:36;20.70;88.30
5520;DHT22;2782;52.362;10.012;2023-08-07T00:47:39;20.70;88.30
5520;DHT22;2782;52.362;10.012;2023-08-07T00:48:41;20.70;88.30
5520;DHT22;2782;52.362;10.012;2023-08-07T00:49:41;20.70;88.30
5520;DHT22;2782;52.362;10.012;2023-08-07T00:50:44;20.70;88.30
5520;DHT22;2782;52.362;10.012;2023-08-07T00:51:46;20.70;88.40
5520;DHT22;2782;52.362;10.012;2023-08-07T00:52:48;20.70;88.30
5520;DHT22;2782;52.362;10.012;2023-08-07T00:53:49;20.70;88.40
5520;DHT22;2782;52.362;10.012;2023-08-07T00:54:51;20.70;88.30
5520;DHT22;2782;52.362;10.012;2023-08-07T00:55:52;20.70;88.40
5520;DHT22;2782;52.362;10.012;2023-08-07T00:56:54;20.70;88.40
5520;DHT22;2782;52.362;10.012;2023-08-07T00:57:55;20.70;88.40
5520;DHT22;2782;52.362;10.012;2023-08-07T00:58:57;20.70;88.40
5520;DHT22;2782;52.362;10.012;2023-08-07T00:59:59;20.70;88.40
5520;DHT22;2782;52.362;10.012;2023-08-07T01:01:02;20.70;88.50
5520;DHT22;2782;52.362;10.012;2023-08-07T01:02:04;20.70;88.40
5520;DHT22;2782;52.362;10.012;2023-08-07T01:03:06;20.70;88.50
5520;DHT22;2782;52.362;10.012;2023-08-07T01:04:06;20.70;88.50
5520;DHT22;2782;52.362;10.012;2023-08-07T01:05:08;20.70;88.50
5520;DHT22;2782;52.362;10.012;2023-08-07T01:06:09;20.70;88.50
5520;DHT22;2782;52.362;10.012;2023-08-07T01:07:11;20.70;88.40
5520;DHT22;2782;52.362;10.012;2023-08-07T01:08:11;20.70;88.50
5520;DHT22;2782;52.362;10.012;2023-08-07T01:09:13;20.70;88.40
5520;DHT22;2782;52.362;10.012;2023-08-07T01:10:14;20.70;88.40
5520;DHT22;2782;52.362;10.012;2023-08-07T01:11:22;20.70;88.40
5520;DHT22;2782;52.362;10.012;2023-08-07T01:12:28;20.70;88.40
5520;DHT22;2782;52.362;10.012;2023-08-07T01:13:34;20.70;88.40
5520;DHT22;2782;52.362;10.012;2023-08-07T01:14:41;20.70;88.40
5520;DHT22;2782;52.362;10.012;2023-08-07T01:15:49;20.70;88.30
5520;DHT22;2782;52.362;10.012;2023-08-07T01:17:00;20.70;88.30
5520;DHT22;2782;52.362;10.012;2023-08-07T01:18:05;20.70;88.30
5520;DHT22;2782;52.362;10.012;2023-08-07T01:19:12;20.70;88.40
5520;DHT22;2782;52.362;10.012;2023-08-07T01:20:20;20.70;88.30
5520;DHT22;2782;52.362;10.012;2023-08-07T01:21:21;20.70;88.40
5520;DHT22;2782;52.362;10.012;2023-08-07T01:22:24;20.70;88.40
5520;DHT22;2782;52.362;10.012;2023-08-07T01:23:25;20.70;88.40
5520;DHT22;2782;52.362;10.012;2023-08-07T01:24:27;20.70;88.40
5520;DHT22;2782;52.362;10.012;2023-08-07T01:25:28;20.70;88.40
5520;DHT22;2782;52.362;10.012;2023-08-07T01:26:30;20.70;88.40
5520;DHT22;2782;52.362;10.012;2023-08-07T01:27:35;20.70;88.40
5520;DHT22;2782;52.362;10.012;2023-08-07T01:28:44;20.70;88.30
5520;DHT22;2782;52.362;10.012;2023-08-07T01:29:54;20.70;88.30
5520;DHT22;2782;52.362;10.012;2023-08-07T01:31:01;20.70;88.30
5520;DHT22;2782;52.362;10.012;2023-08-07T01:32:08;20.70;88.40
5520;DHT22;2782;52.362;10.012;2023-08-07T01:33:22;20.70;88.40
5520;DHT22;2782;52.362;10.012;2023-08-07T01:34:25;20.70;88.40
5520;DHT22;2782;52.362;10.012;2023-08-07T01:35:30;20.70;88.40
5520;DHT22;2782;52.362;10.012;2023-08-07T01:36:33;20.70;88.40
5520;DHT22;2782;52.362;10.012;2023-08-07T01:37:40;20.60;88.30
5520;DHT22;2782;52.362;10.012;2023-08-07T01:38:42;20.60;88.40
5520;DHT22;2782;52.362;10.012;2023-08-07T01:39:45;20.60;88.40
5520;DHT22;2782;52.362;10.012;2023-08-07T01:40:48;20.70;88.50
5520;DHT22;2782;52.362;10.012;2023-08-07T01:41:50;20.60;88.40
5520;DHT22;2782;52.362;10.012;2023-08-07T01:42:51;20.60;88.40
5520;DHT22;2782;52.362;10.012;2023-08-07T01:43:53;20.60;88.40
5520;DHT22;2782;52.362;10.012;2023-08-07T01:44:54;20.70;88.50
5520;DHT22;2782;52.362;10.012;2023-08-07T01:45:55;20.60;88.40
5520;DHT22;2782;52.362;10.012;2023-08-07T01:46:57;20.70;88.50
5520;DHT22;2782;52.362;10.012;2023-08-07T01:47:59;20.70;88.50
5520;DHT22;2782;52.362;10.012;2023-08-07T01:49:01;20.70;88.50
5520;DHT22;2782;52.362;10.012;2023-08-07T01:50:01;20.70;88.50
5520;DHT22;2782;52.362;10.012;2023-08-07T01:51:03;20.70;88.50
5520;DHT22;2782;52.362;10.012;2023-08-07T01:52:05;20.70;88.50
5520;DHT22;2782;52.362;10.012;2023-08-07T01:53:08;20.60;88.50
5520;DHT22;2782;52.362;10.012;2023-08-07T01:54:09;20.70;88.60
5520;DHT22;2782;52.362;10.012;2023-08-07T01:55:10;20.60;88.50
5520;DHT22;2782;52.362;10.012;2023-08-07T01:56:11;20.70;88.60
5520;DHT22;2782;52.362;10.012;2023-08-07T01:57:13;20.70;88.60
5520;DHT22;2782;52.362;10.012;2023-08-07T01:58:13;20.70;88.60
5520;DHT22;2782;52.362;10.012;2023-08-07T01:59:15;20.70;88.60
5520;DHT22;2782;52.362;10.012;2023-08-07T02:00:16;20.70;88.60
5520;DHT22;2782;52.362;10.012;2023-08-07T02:01:18;20.70;88.70
5520;DHT22;2782;52.362;10.012;2023-08-07T02:02:18;20.70;88.60
5520;DHT22;2782;52.362;10.012;2023-08-07T02:03:20;20.70;88.60
5520;DHT22;2782;52.362;10.012;2023-08-07T02:04:21;20.70;88.60
5520;DHT22;2782;52.362;10.012;2023-08-07T02:05:22;20.60;88.40
5520;DHT22;2782;52.362;10.012;2023-08-07T02:06:23;20.70;88.60
5520;DHT22;2782;52.362;10.012;2023-08-07T02:07:25;20.70;88.60
5520;DHT22;2782;52.362;10.012;2023-08-07T02:08:27;20.70;88.60
5520;DHT22;2782;52.362;10.012;2023-08-07T02:09:28;20.60;88.50
5520;DHT22;2782;52.362;10.012;2023-08-07T02:10:29;20.70;88.60
5520;DHT22;2782;52.362;10.012;2023-08-07T02:11:31;20.70;88.50
5520;DHT22;2782;52.362;10.012;2023-08-07T02:12:31;20.70;88.60
5520;DHT22;2782;52.362;10.012;2023-08-07T02:13:33;20.60;88.40
5520;DHT22;2782;52.362;10.012;2023-08-07T02:14:34;20.70;88.50
5520;DHT22;2782;52.362;10.012;2023-08-07T02:15:36;20.70;88.50
5520;DHT22;2782;52.362;10.012;2023-08-07T02:16:36;20.60;88.40
5520;DHT22;2782;52.362;10.012;2023-08-07T02:17:38;20.70;88.50
5520;DHT22;2782;52.362;10.012;2023-08-07T02:18:41;20.70;88.50
5520;DHT22;2782;52.362;10.012;2023-08-07T02:19:43;20.70;88.50
5520;DHT22;2782;52.362;10.012;2023-08-07T02:20:44;20.60;88.30
5520;DHT22;2782;52.362;10.012;2023-08-07T02:21:46;20.70;88.40
5520;DHT22;2782;52.362;10.012;2023-08-07T02:22:47;20.70;88.40
5520;DHT22;2782;52.362;10.012;2023-08-07T02:23:50;20.70;88.40
5520;DHT22;2782;52.362;10.012;2023-08-07T02:24:51;20.60;88.30
5520;DHT22;2782;52.362;10.012;2023-08-07T02:25:53;20.70;88.40
5520;DHT22;2782;52.362;10.012;2023-08-07T02:26:53;20.60;88.40
5520;DHT22;2782;52.362;10.012;2023-08-07T02:27:55;20.60;88.30
5520;DHT22;2782;52.362;10.012;2023-08-07T02:28:56;20.70;88.50
5520;DHT22;2782;52.362;10.012;2023-08-07T02:29:58;20.70;88.40
5520;DHT22;2782;52.362;10.012;2023-08-07T02:30:58;20.60;88.30
5520;DHT22;2782;52.362;10.012;2023-08-07T02:32:01;20.60;88.30
5520;DHT22;2782;52.362;10.012;2023-08-07T02:33:02;20.60;88.40
5520;DHT22;2782;52.362;10.012;2023-08-07T02:34:04;20.70;88.50
5520;DHT22;2782;52.362;10.012;2023-08-07T02:35:05;20.60;88.40
5520;DHT22;2782;52.362;10.012;2023-08-07T02:36:07;20.60;88.40
5520;DHT22;2782;52.362;10.012;2023-08-07T02:37:08;20.60;88.40
5520;DHT22;2782;52.362;10.012;2023-08-07T02:38:08;20.60;88.40
5520;DHT22;2782;52.362;10.012;2023-08-07T02:39:13;20.60;88.30
5520;DHT22;2782;52.362;10.012;2023-08-07T02:40:14;20.60;88.40
5520;DHT22;2782;52.362;10.012;2023-08-07T02:41:17;20.60;88.40
5520;DHT22;2782;52.362;10.012;2023-08-07T02:42:18;20.60;88.40
5520;DHT22;2782;52.362;10.012;2023-08-07T02:43:20;20.60;88.40
5520;DHT22;2782;52.362;10.012;2023-08-07T02:44:20;20.60;88.40
5520;DHT22;2782;52.362;10.012;2023-08-07T02:45:22;20.60;88.40
5520;DHT22;2782;52.362;10.012;2023-08-07T02:46:23;20.70;88.50
5520;DHT22;2782;52.362;10.012;2023-08-07T02:47:25;20.60;88.40
5520;DHT22;2782;52.362;10.012;2023-08-07T02:48:25;20.60;88.50
5520;DHT22;2782;52.362;10.012;2023-08-07T02:49:28;20.60;88.50
5520;DHT22;2782;52.362;10.012;2023-08-07T02:50:30;20.60;88.50
5520;DHT22;2782;52.362;10.012;2023-08-07T02:51:33;20.60;88.50
5520;DHT22;2782;52.362;10.012;2023-08-07T02:52:33;20.60;88.50
5520;DHT22;2782;52.362;10.012;2023-08-07T02:53:35;20.60;88.60
5520;DHT22;2782;52.362;10.012;2023-08-07T02:54:37;20.60;88.60
5520;DHT22;2782;52.362;10.012;2023-08-07T02:55:39;20.60;88.50
5520;DHT22;2782;52.362;10.012;2023-08-07T02:56:39;20.60;88.50
5520;DHT22;2782;52.362;10.012;2023-08-07T02:57:41;20.60;88.50
5520;DHT22;2782;52.362;10.012;2023-08-07T02:58:41;20.60;88.50
5520;DHT22;2782;52.362;10.012;2023-08-07T02:59:42;20.60;88.50
5520;DHT22;2782;52.362;10.012;2023-08-07T03:00:44;20.60;88.50
5520;DHT22;2782;52.362;10.012;2023-08-07T03:01:45;20.60;88.60
5520;DHT22;2782;52.362;10.012;2023-08-07T03:02:46;20.60;88.60
5520;DHT22;2782;52.362;10.012;2023-08-07T03:03:47;20.60;88.60
5520;DHT22;2782;52.362;10.012;2023-08-07T03:04:49;20.60;88.60
5520;DHT22;2782;52.362;10.012;2023-08-07T03:05:50;20.60;88.60
5520;DHT22;2782;52.362;10.012;2023-08-07T03:06:51;20.60;88.50
5520;DHT22;2782;52.362;10.012;2023-08-07T03:07:52;20.60;88.50
5520;DHT22;2782;52.362;10.012;2023-08-07T03:08:54;20.60;88.60
5520;DHT22;2782;52.362;10.012;2023-08-07T03:09:56;20.60;88.60
5520;DHT22;2782;52.362;10.012;2023-08-07T03:10:58;20.60;88.50
5520;DHT22;2782;52.362;10.012;2023-08-07T03:11:59;20.60;88.60
5520;DHT22;2782;52.362;10.012;2023-08-07T03:13:03;20.60;88.60
5520;DHT22;2782;52.362;10.012;2023-08-07T03:14:04;20.70;88.60
5520;DHT22;2782;52.362;10.012;2023-08-07T03:15:06;20.60;88.50
5520;DHT22;2782;52.362;10.012;2023-08-07T03:16:07;20.60;88.50
5520;DHT22;2782;52.362;10.012;2023-08-07T03:17:09;20.60;88.50
5520;DHT22;2782;52.362;10.012;2023-08-07T03:18:09;20.60;88.50
5520;DHT22;2782;52.362;10.012;2023-08-07T03:19:11;20.60;88.50
5520;DHT22;2782;52.362;10.012;2023-08-07T03:20:12;20.60;88.40
5520;DHT22;2782;52.362;10.012;2023-08-07T03:21:14;20.60;88.50
5520;DHT22;2782;52.362;10.012;2023-08-07T03:22:15;20.60;88.60
5520;DHT22;2782;52.362;10.012;2023-08-07T03:23:16;20.60;88.50
5520;DHT22;2782;52.362;10.012;2023-08-07T03:24:17;20.60;88.50
5520;DHT22;2782;52.362;10.012;2023-08-07T03:25:19;20.60;88.40
5520;DHT22;2782;52.362;10.012;2023-08-07T03:26:20;20.60;88.40
5520;DHT22;2782;52.362;10.012;2023-08-07T03:27:21;20.60;88.40
5520;DHT22;2782;52.362;10.012;2023-08-07T03:28:23;20.60;88.40
5520;DHT22;2782;52.362;10.012;2023-08-07T03:29:24;20.60;88.40
5520;DHT22;2782;52.362;10.012;2023-08-07T03:30:25;20.60;88.40
5520;DHT22;2782;52.362;10.012;2023-08-07T03:31:26;20.60;88.40
5520;DHT22;2782;52.362;10.012;2023-08-07T03:32:28;20.60;88.40
5520;DHT22;2782;52.362;10.012;2023-08-07T03:33:29;20.60;88.40
5520;DHT22;2782;52.362;10.012;2023-08-07T03:34:31;20.60;88.40
5520;DHT22;2782;52.362;10.012;2023-08-07T03:35:32;20.60;88.40
5520;DHT22;2782;52.362;10.012;2023-08-07T03:36:33;20.60;88.40
5520;DHT22;2782;52.362;10.012;2023-08-07T03:37:36;20.60;88.40
5520;DHT22;2782;52.362;10.012;2023-08-07T03:38:37;20.60;88.40
5520;DHT22;2782;52.362;10.012;2023-08-07T03:39:39;20.60;88.40
5520;DHT22;2782;52.362;10.012;2023-08-07T03:40:41;20.60;88.40
5520;DHT22;2782;52.362;10.012;2023-08-07T03:41:42;20.60;88.40
5520;DHT22;2782;52.362;10.012;2023-08-07T03:42:43;20.60;88.40
5520;DHT22;2782;52.362;10.012;2023-08-07T03:43:45;20.60;88.40
5520;DHT22;2782;52.362;10.012;2023-08-07T03:44:45;20.60;88.40
5520;DHT22;2782;52.362;10.012;2023-08-07T03:45:47;20.60;88.40
5520;DHT22;2782;52.362;10.012;2023-08-07T03:46:48;20.60;88.40
5520;DHT22;2782;52.362;10.012;2023-08-07T03:47:49;20.60;88.40
5520;DHT22;2782;52.362;10.012;2023-08-07T03:48:50;20.60;88.40
5520;DHT22;2782;52.362;10.012;2023-08-07T03:49:52;20.60;88.40
5520;DHT22;2782;52.362;10.012;2023-08-07T03:50:52;20.60;88.40
5520;DHT22;2782;52.362;10.012;2023-08-07T03:51:54;20.60;88.40
5520;DHT22;2782;52.362;10.012;2023-08-07T03:52:55;20.60;88.40
5520;DHT22;2782;52.362;10.012;2023-08-07T03:53:55;20.60;88.40
5520;DHT22;2782;52.362;10.012;2023-08-07T03:54:57;20.60;88.40
5520;DHT22;2782;52.362;10.012;2023-08-07T03:55:59;20.60;88.50
5520;DHT22;2782;52.362;10.012;2023-08-07T03:57:01;20.60;88.50
5520;DHT22;2782;52.362;10.012;2023-08-07T03:58:01;20.60;88.40
5520;DHT22;2782;52.362;10.012;2023-08-07T03:59:02;20.60;88.50
5520;DHT22;2782;52.362;10.012;2023-08-07T04:00:06;20.60;88.50
5520;DHT22;2782;52.362;10.012;2023-08-07T04:01:07;20.60;88.50
5520;DHT22;2782;52.362;10.012;2023-08-07T04:02:08;20.60;88.40
5520;DHT22;2782;52.362;10.012;2023-08-07T04:03:09;20.60;88.50
5520;DHT22;2782;52.362;10.012;2023-08-07T04:04:11;20.60;88.40
5520;DHT22;2782;52.362;10.012;2023-08-07T04:05:12;20.60;88.40
5520;DHT22;2782;52.362;10.012;2023-08-07T04:06:13;20.60;88.40
5520;DHT22;2782;52.362;10.012;2023-08-07T04:07:16;20.60;88.40
5520;DHT22;2782;52.362;10.012;2023-08-07T04:08:18;20.60;88.40
5520;DHT22;2782;52.362;10.012;2023-08-07T04:09:18;20.60;88.40
5520;DHT22;2782;52.362;10.012;2023-08-07T04:10:20;20.60;88.40
5520;DHT22;2782;52.362;10.012;2023-08-07T04:11:22;20.60;88.40
5520;DHT22;2782;52.362;10.012;2023-08-07T04:12:23;20.60;88.40
5520;DHT22;2782;52.362;10.012;2023-08-07T04:13:24;20.60;88.40
5520;DHT22;2782;52.362;10.012;2023-08-07T04:14:26;20.60;88.40
5520;DHT22;2782;52.362;10.012;2023-08-07T04:15:27;20.60;88.40
5520;DHT22;2782;52.362;10.012;2023-08-07T04:16:30;20.60;88.40
5520;DHT22;2782;52.362;10.012;2023-08-07T04:17:31;20.60;88.30
5520;DHT22;2782;52.362;10.012;2023-08-07T04:18:33;20.60;88.30
5520;DHT22;2782;52.362;10.012;2023-08-07T04:19:34;20.60;88.30
5520;DHT22;2782;52.362;10.012;2023-08-07T04:20:35;20.60;88.30
5520;DHT22;2782;52.362;10.012;2023-08-07T04:21:36;20.60;88.30
5520;DHT22;2782;52.362;10.012;2023-08-07T04:22:38;20.60;88.30
5520;DHT22;2782;52.362;10.012;2023-08-07T04:23:38;20.60;88.30
5520;DHT22;2782;52.362;10.012;2023-08-07T04:24:40;20.60;88.20
5520;DHT22;2782;52.362;10.012;2023-08-07T04:25:41;20.60;88.20
5520;DHT22;2782;52.362;10.012;2023-08-07T04:26:44;20.60;88.30
5520;DHT22;2782;52.362;10.012;2023-08-07T04:27:44;20.60;88.20
5520;DHT22;2782;52.362;10.012;2023-08-07T04:28:46;20.60;88.20
5520;DHT22;2782;52.362;10.012;2023-08-07T04:29:47;20.60;88.20
5520;DHT22;2782;52.362;10.012;2023-08-07T04:30:49;20.60;88.90
5520;DHT22;2782;52.362;10.012;2023-08-07T04:31:50;20.60;88.20
5520;DHT22;2782;52.362;10.012;2023-08-07T04:32:52;20.60;88.20
5520;DHT22;2782;52.362;10.012;2023-08-07T04:33:53;20.60;88.20
5520;DHT22;2782;52.362;10.012;2023-08-07T04:34:54;20.60;88.20
5520;DHT22;2782;52.362;10.012;2023-08-07T04:35:55;20.60;88.20
5520;DHT22;2782;52.362;10.012;2023-08-07T04:36:57;20.60;88.20
5520;DHT22;2782;52.362;10.012;2023-08-07T04:37:57;20.60;88.20
5520;DHT22;2782;52.362;10.012;2023-08-07T04:38:59;20.60;88.30
5520;DHT22;2782;52.362;10.012;2023-08-07T04:40:00;20.60;88.20
5520;DHT22;2782;52.362;10.012;2023-08-07T04:41:02;20.60;88.30
5520;DHT22;2782;52.362;10.012;2023-08-07T04:42:05;20.60;88.30
5520;DHT22;2782;52.362;10.012;2023-08-07T04:43:07;20.60;88.20
5520;DHT22;2782;52.362;10.012;2023-08-07T04:44:08;20.60;88.20
5520;DHT22;2782;52.362;10.012;2023-08-07T04:45:09;20.60;88.30
5520;DHT22;2782;52.362;10.012;2023-08-07T04:46:10;20.60;88.30
5520;DHT22;2782;52.362;10.012;2023-08-07T04:47:12;20.60;88.20
5520;DHT22;2782;52.362;10.012;2023-08-07T04:48:13;20.60;88.30
5520;DHT22;2782;52.362;10.012;2023-08-07T04:49:15;20.60;88.30
5520;DHT22;2782;52.362;10.012;2023-08-07T04:50:16;20.60;88.30
5520;DHT22;2782;52.362;10.012;2023-08-07T04:51:17;20.60;88.30
5520;DHT22;2782;52.362;10.012;2023-08-07T04:52:18;20.60;88.40
5520;DHT22;2782;52.362;10.012;2023-08-07T04:53:20;20.60;88.40
5520;DHT22;2782;52.362;10.012;2023-08-07T04:54:20;20.60;88.30
5520;DHT22;2782;52.362;10.012;2023-08-07T04:55:22;20.60;88.30
5520;DHT22;2782;52.362;10.012;2023-08-07T04:56:23;20.60;88.30
5520;DHT22;2782;52.362;10.012;2023-08-07T04:57:26;20.60;88.30
5520;DHT22;2782;52.362;10.012;2023-08-07T04:58:27;20.60;88.30
5520;DHT22;2782;52.362;10.012;2023-08-07T04:59:28;20.60;88.30
5520;DHT22;2782;52.362;10.012;2023-08-07T05:00:31;20.60;88.30
5520;DHT22;2782;52.362;10.012;2023-08-07T05:01:32;20.60;88.30
5520;DHT22;2782;52.362;10.012;2023-08-07T05:02:33;20.60;88.40
5520;DHT22;2782;52.362;10.012;2023-08-07T05:03:35;20.60;89.00
5520;DHT22;2782;52.362;10.012;2023-08-07T05:04:35;20.60;88.20
5520;DHT22;2782;52.362;10.012;2023-08-07T05:05:37;20.60;88.30
5520;DHT22;2782;52.362;10.012;2023-08-07T05:06:38;20.60;88.20
5520;DHT22;2782;52.362;10.012;2023-08-07T05:07:40;20.60;88.30
5520;DHT22;2782;52.362;10.012;2023-08-07T05:08:41;20.60;88.20
5520;DHT22;2782;52.362;10.012;2023-08-07T05:09:42;20.60;88.20
5520;DHT22;2782;52.362;10.012;2023-08-07T05:10:43;20.60;88.20
5520;DHT22;2782;52.362;10.012;2023-08-07T05:11:45;20.60;88.20
5520;DHT22;2782;52.362;10.012;2023-08-07T05:12:47;20.60;88.20
5520;DHT22;2782;52.362;10.012;2023-08-07T05:13:49;20.60;88.20
5520;DHT22;2782;52.362;10.012;2023-08-07T05:14:49;20.60;88.20
5520;DHT22;2782;52.362;10.012;2023-08-07T05:15:51;20.60;88.20
5520;DHT22;2782;52.362;10.012;2023-08-07T05:16:52;20.60;88.20
5520;DHT22;2782;52.362;10.012;2023-08-07T05:17:53;20.60;88.10
5520;DHT22;2782;52.362;10.012;2023-08-07T05:18:54;20.60;88.20
5520;DHT22;2782;52.362;10.012;2023-08-07T05:19:55;20.60;88.20
5520;DHT22;2782;52.362;10.012;2023-08-07T05:20:56;20.60;88.20
5520;DHT22;2782;52.362;10.012;2023-08-07T05:21:57;20.60;88.20
5520;DHT22;2782;52.362;10.012;2023-08-07T05:22:59;20.60;88.20
5520;DHT22;2782;52.362;10.012;2023-08-07T05:23:59;20.60;88.20
5520;DHT22;2782;52.362;10.012;2023-08-07T05:25:01;20.60;88.20
5520;DHT22;2782;52.362;10.012;2023-08-07T05:26:02;20.60;88.20
5520;DHT22;2782;52.362;10.012;2023-08-07T05:27:04;20.60;88.20
5520;DHT22;2782;52.362;10.012;2023-08-07T05:28:06;20.60;88.20
5520;DHT22;2782;52.362;10.012;2023-08-07T05:29:08;20.60;88.10
5520;DHT22;2782;52.362;10.012;2023-08-07T05:30:09;20.60;88.20
5520;DHT22;2782;52.362;10.012;2023-08-07T05:31:11;20.60;88.10
5520;DHT22;2782;52.362;10.012;2023-08-07T05:32:12;20.60;88.20
5520;DHT22;2782;52.362;10.012;2023-08-07T05:33:14;20.60;88.10
5520;DHT22;2782;52.362;10.012;2023-08-07T05:34:15;20.60;88.20
5520;DHT22;2782;52.362;10.012;2023-08-07T05:35:17;20.60;88.20
5520;DHT22;2782;52.362;10.012;2023-08-07T05:36:18;20.60;88.10
5520;DHT22;2782;52.362;10.012;2023-08-07T05:37:19;20.60;88.20
5520;DHT22;2782;52.362;10.012;2023-08-07T05:38:20;20.60;88.20
5520;DHT22;2782;52.362;10.012;2023-08-07T05:39:21;20.60;88.20
5520;DHT22;2782;52.362;10.012;2023-08-07T05:40:23;20.60;88.20
5520;DHT22;2782;52.362;10.012;2023-08-07T05:41:24;20.60;88.20
5520;DHT22;2782;52.362;10.012;2023-08-07T05:42:25;20.60;88.20
5520;DHT22;2782;52.362;10.012;2023-08-07T05:43:27;20.60;88.20
5520;DHT22;2782;52.362;10.012;2023-08-07T05:44:29;20.60;88.20
5520;DHT22;2782;52.362;10.012;2023-08-07T05:45:30;20.60;88.20
5520;DHT22;2782;52.362;10.012;2023-08-07T05:46:32;20.60;88.20
5520;DHT22;2782;52.362;10.012;2023-08-07T05:47:32;20.60;88.20
5520;DHT22;2782;52.362;10.012;2023-08-07T05:48:33;20.60;88.20
5520;DHT22;2782;52.362;10.012;2023-08-07T05:49:34;20.60;88.20
5520;DHT22;2782;52.362;10.012;2023-08-07T05:50:35;20.60;88.20
5520;DHT22;2782;52.362;10.012;2023-08-07T05:51:37;20.60;88.10
5520;DHT22;2782;52.362;10.012;2023-08-07T05:52:37;20.60;88.10
5520;DHT22;2782;52.362;10.012;2023-08-07T05:53:39;20.60;88.10
5520;DHT22;2782;52.362;10.012;2023-08-07T05:54:40;20.60;88.10
5520;DHT22;2782;52.362;10.012;2023-08-07T05:55:41;20.60;88.10
5520;DHT22;2782;52.362;10.012;2023-08-07T05:56:42;20.60;88.10
5520;DHT22;2782;52.362;10.012;2023-08-07T05:57:44;20.60;88.10
5520;DHT22;2782;52.362;10.012;2023-08-07T05:58:46;20.60;88.10
5520;DHT22;2782;52.362;10.012;2023-08-07T05:59:48;20.60;88.00
5520;DHT22;2782;52.362;10.012;2023-08-07T06:00:48;20.60;88.00
5520;DHT22;2782;52.362;10.012;2023-08-07T06:01:50;20.60;88.00
5520;DHT22;2782;52.362;10.012;2023-08-07T06:02:51;20.60;88.00
5520;DHT22;2782;52.362;10.012;2023-08-07T06:03:53;20.60;88.00
5520;DHT22;2782;52.362;10.012;2023-08-07T06:04:54;20.60;87.90
5520;DHT22;2782;52.362;10.012;2023-08-07T06:05:55;20.60;87.90
5520;DHT22;2782;52.362;10.012;2023-08-07T06:06:56;20.50;87.80
5520;DHT22;2782;52.362;10.012;2023-08-07T06:07:58;20.60;87.90
5520;DHT22;2782;52.362;10.012;2023-08-07T06:08:58;20.60;87.90
5520;DHT22;2782;52.362;10.012;2023-08-07T06:09:59;20.60;87.90
5520;DHT22;2782;52.362;10.012;2023-08-07T06:11:01;20.60;87.90
5520;DHT22;2782;52.362;10.012;2023-08-07T06:12:04;20.60;87.90
5520;DHT22;2782;52.362;10.012;2023-08-07T06:13:06;20.60;87.90
5520;DHT22;2782;52.362;10.012;2023-08-07T06:14:08;20.60;87.90
5520;DHT22;2782;52.362;10.012;2023-08-07T06:15:10;20.60;87.90
5520;DHT22;2782;52.362;10.012;2023-08-07T06:16:11;20.60;87.90
5520;DHT22;2782;52.362;10.012;2023-08-07T06:17:12;20.60;87.80
5520;DHT22;2782;52.362;10.012;2023-08-07T06:18:13;20.60;87.80
5520;DHT22;2782;52.362;10.012;2023-08-07T06:19:14;20.60;87.80
5520;DHT22;2782;52.362;10.012;2023-08-07T06:20:16;20.60;87.90
5520;DHT22;2782;52.362;10.012;2023-08-07T06:21:17;20.60;87.90
5520;DHT22;2782;52.362;10.012;2023-08-07T06:22:18;20.60;87.80
5520;DHT22;2782;52.362;10.012;2023-08-07T06:23:20;20.60;87.80
5520;DHT22;2782;52.362;10.012;2023-08-07T06:24:20;20.60;87.90
5520;DHT22;2782;52.362;10.012;2023-08-07T06:25:22;20.60;87.80
5520;DHT22;2782;52.362;10.012;2023-08-07T06:26:23;20.60;87.80
5520;DHT22;2782;52.362;10.012;2023-08-07T06:27:24;20.60;87.90
5520;DHT22;2782;52.362;10.012;2023-08-07T06:28:25;20.60;87.90
5520;DHT22;2782;52.362;10.012;2023-08-07T06:29:28;20.60;87.80
5520;DHT22;2782;52.362;10.012;2023-08-07T06:30:28;20.60;87.90
5520;DHT22;2782;52.362;10.012;2023-08-07T06:31:30;20.60;87.90
5520;DHT22;2782;52.362;10.012;2023-08-07T06:32:31;20.60;87.90
5520;DHT22;2782;52.362;10.012;2023-08-07T06:33:33;20.60;87.90
5520;DHT22;2782;52.362;10.012;2023-08-07T06:34:35;20.60;87.90
5520;DHT22;2782;52.362;10.012;2023-08-07T06:35:38;20.60;87.90